createdAt,value
2018-07-21T00:00:46.107Z,22.10
2018-07-21T00:03:14.529Z,22.10
2018-07-21T00:05:42.962Z,21.90
2018-07-21T00:08:11.292Z,21.90
2018-07-21T00:10:39.659Z,21.60
2018-07-21T00:13:08.005Z,21.60
2018-07-21T00:15:36.324Z,21.70
2018-07-21T00:18:04.879Z,21.70
2018-07-21T00:20:33.338Z,21.80
2018-07-21T00:23:01.687Z,21.80
2018-07-21T00:25:30.020Z,21.80
2018-07-21T00:27:58.344Z,21.70
2018-07-21T00:30:26.675Z,21.60
2018-07-21T00:32:55.019Z,21.50
2018-07-21T00:35:23.328Z,21.40
2018-07-21T00:37:51.666Z,21.40
2018-07-21T00:40:19.987Z,21.50
2018-07-21T00:42:48.339Z,21.50
2018-07-21T00:45:16.649Z,21.40
2018-07-21T00:47:44.984Z,21.20
2018-07-21T00:50:13.308Z,21.10
2018-07-21T00:52:41.625Z,21.10
2018-07-21T00:55:10.091Z,21.10
2018-07-21T00:57:38.453Z,21.10
2018-07-21T01:00:06.927Z,21.00
2018-07-21T01:02:35.358Z,20.90
2018-07-21T01:05:03.812Z,20.90
2018-07-21T01:07:32.163Z,20.90
2018-07-21T01:10:00.623Z,20.90
2018-07-21T01:12:28.944Z,20.80
2018-07-21T01:14:57.236Z,20.80
2018-07-21T01:17:25.571Z,20.80
2018-07-21T01:19:53.883Z,20.80
2018-07-21T01:22:22.255Z,20.70
2018-07-21T01:24:50.556Z,20.70
2018-07-21T01:27:18.917Z,20.60
2018-07-21T01:29:47.273Z,20.60
2018-07-21T01:32:15.632Z,20.60
2018-07-21T01:34:43.972Z,20.60
2018-07-21T01:37:12.306Z,20.60
2018-07-21T01:39:40.622Z,20.60
2018-07-21T01:42:08.958Z,20.60
2018-07-21T01:44:37.274Z,20.60
2018-07-21T01:47:05.768Z,20.50
2018-07-21T01:49:34.073Z,20.50
2018-07-21T01:52:02.393Z,20.40
2018-07-21T01:54:30.711Z,20.40
2018-07-21T01:56:59.047Z,20.40
2018-07-21T01:59:27.439Z,20.40
2018-07-21T02:01:55.775Z,20.40
2018-07-21T02:06:52.165Z,20.30
2018-07-21T02:09:20.469Z,20.30
2018-07-21T02:11:48.813Z,20.30
2018-07-21T02:14:17.148Z,20.30
2018-07-21T02:16:45.489Z,20.30
2018-07-21T02:19:13.809Z,20.30
2018-07-21T02:21:42.126Z,20.30
2018-07-21T02:24:10.463Z,20.30
2018-07-21T02:26:38.782Z,20.30
2018-07-21T02:29:07.126Z,20.30
2018-07-21T02:31:35.560Z,20.30
2018-07-21T02:34:03.907Z,20.30
2018-07-21T02:36:32.327Z,20.20
2018-07-21T02:39:00.762Z,20.20
2018-07-21T02:41:29.079Z,20.20
2018-07-21T02:43:57.419Z,20.10
2018-07-21T02:46:25.722Z,20.20
2018-07-21T02:48:54.051Z,20.10
2018-07-21T02:51:22.376Z,20.10
2018-07-21T02:53:50.789Z,19.90
2018-07-21T02:56:19.150Z,19.90
2018-07-21T02:58:47.501Z,19.80
2018-07-21T03:01:15.823Z,19.80
2018-07-21T03:03:44.163Z,19.70
2018-07-21T03:06:12.488Z,19.70
2018-07-21T03:08:40.813Z,19.70
2018-07-21T03:11:09.125Z,19.60
2018-07-21T03:13:37.463Z,19.60
2018-07-21T03:16:05.799Z,19.60
2018-07-21T03:18:34.151Z,19.60
2018-07-21T03:21:02.453Z,19.70
2018-07-21T03:23:30.778Z,19.80
2018-07-21T03:25:59.076Z,19.80
2018-07-21T03:28:27.435Z,19.80
2018-07-21T03:30:55.887Z,19.80
2018-07-21T03:33:24.173Z,19.70
2018-07-21T03:35:52.489Z,19.70
2018-07-21T03:38:20.819Z,19.60
2018-07-21T03:40:49.135Z,19.60
2018-07-21T03:43:17.491Z,19.70
2018-07-21T03:45:45.800Z,19.60
2018-07-21T03:48:14.141Z,19.60
2018-07-21T03:50:42.445Z,19.60
2018-07-21T03:53:10.774Z,19.60
2018-07-21T03:55:39.091Z,19.70
2018-07-21T03:58:07.438Z,19.70
2018-07-21T04:00:35.841Z,19.70
2018-07-21T04:03:04.129Z,19.60
2018-07-21T04:05:32.421Z,19.70
2018-07-21T04:08:00.769Z,19.70
2018-07-21T04:10:29.087Z,19.70
2018-07-21T04:12:57.403Z,19.70
2018-07-21T04:15:25.745Z,19.60
2018-07-21T04:17:54.057Z,19.60
2018-07-21T04:22:50.416Z,19.40
2018-07-21T04:25:18.743Z,19.50
2018-07-21T04:27:47.060Z,19.40
2018-07-21T04:30:15.392Z,19.40
2018-07-21T04:32:43.703Z,19.30
2018-07-21T04:35:12.052Z,19.20
2018-07-21T04:37:40.356Z,19.20
2018-07-21T04:40:08.691Z,19.30
2018-07-21T04:42:37.016Z,19.30
2018-07-21T04:45:05.361Z,19.30
2018-07-21T04:47:33.670Z,19.30
2018-07-21T04:50:01.982Z,19.30
2018-07-21T04:52:30.313Z,19.30
2018-07-21T04:54:58.644Z,19.30
2018-07-21T04:57:26.953Z,19.40
2018-07-21T04:59:55.307Z,19.40
2018-07-21T05:02:23.621Z,19.40
2018-07-21T05:04:51.940Z,19.40
2018-07-21T05:07:20.309Z,19.40
2018-07-21T05:09:48.641Z,19.40
2018-07-21T05:12:16.949Z,19.30
2018-07-21T05:14:45.279Z,19.30
2018-07-21T05:17:13.576Z,19.30
2018-07-21T05:19:41.911Z,19.30
2018-07-21T05:22:10.213Z,19.30
2018-07-21T05:24:38.544Z,19.20
2018-07-21T05:27:06.861Z,19.10
2018-07-21T05:29:35.191Z,19.10
2018-07-21T05:32:03.515Z,19.10
2018-07-21T05:34:31.863Z,19.00
2018-07-21T05:37:00.211Z,18.90
2018-07-21T05:39:28.536Z,19.00
2018-07-21T05:41:56.891Z,19.10
2018-07-21T05:44:25.208Z,19.20
2018-07-21T05:46:53.540Z,19.20
2018-07-21T05:49:21.879Z,19.20
2018-07-21T05:51:50.230Z,19.10
2018-07-21T05:54:18.594Z,19.10
2018-07-21T05:56:46.929Z,19.00
2018-07-21T05:59:15.279Z,18.90
2018-07-21T06:01:43.724Z,19.00
2018-07-21T06:04:12.037Z,19.10
2018-07-21T06:06:40.354Z,19.20
2018-07-21T06:09:10.048Z,19.20
2018-07-21T06:11:38.453Z,19.30
2018-07-21T06:14:06.942Z,19.30
2018-07-21T06:16:35.261Z,19.30
2018-07-21T06:19:03.584Z,19.30
2018-07-21T06:21:31.923Z,19.40
2018-07-21T06:24:00.255Z,19.60
2018-07-21T06:26:28.688Z,19.80
2018-07-21T06:28:56.985Z,19.80
2018-07-21T06:31:25.315Z,19.90
2018-07-21T06:33:53.625Z,19.80
2018-07-21T06:36:22.193Z,19.80
2018-07-21T06:38:50.507Z,19.80
2018-07-21T06:41:18.861Z,19.70
2018-07-21T06:43:47.169Z,19.60
2018-07-21T06:46:15.523Z,19.80
2018-07-21T06:48:43.933Z,19.90
2018-07-21T06:51:12.280Z,20.00
2018-07-21T06:53:40.603Z,20.00
2018-07-21T06:56:08.942Z,20.10
2018-07-21T06:58:37.272Z,20.00
2018-07-21T07:01:06.948Z,20.00
2018-07-21T07:03:35.311Z,20.00
2018-07-21T07:06:03.691Z,20.10
2018-07-21T07:08:32.213Z,20.20
2018-07-21T07:11:00.572Z,20.40
2018-07-21T07:13:28.907Z,20.50
2018-07-21T07:15:57.306Z,20.60
2018-07-21T07:18:25.627Z,20.70
2018-07-21T07:20:53.960Z,20.90
2018-07-21T07:23:22.295Z,20.90
2018-07-21T07:25:50.656Z,21.10
2018-07-21T07:28:18.961Z,21.20
2018-07-21T07:30:47.328Z,21.20
2018-07-21T07:33:15.765Z,21.30
2018-07-21T07:35:44.110Z,21.30
2018-07-21T07:38:12.432Z,21.50
2018-07-21T07:40:40.771Z,21.70
2018-07-21T07:43:09.128Z,21.70
2018-07-21T07:45:37.467Z,22.00
2018-07-21T07:48:05.805Z,22.40
2018-07-21T07:50:34.161Z,22.70
2018-07-21T07:53:02.479Z,23.00
2018-07-21T07:55:32.307Z,23.20
2018-07-21T07:58:06.581Z,23.30
2018-07-21T08:00:34.996Z,23.40
2018-07-21T08:03:03.299Z,23.50
2018-07-21T08:05:31.650Z,23.60
2018-07-21T08:07:59.991Z,23.80
2018-07-21T08:10:28.466Z,23.90
2018-07-21T08:12:56.790Z,24.10
2018-07-21T08:15:25.119Z,24.50
2018-07-21T08:17:53.417Z,24.70
2018-07-21T08:20:21.763Z,24.90
2018-07-21T08:22:50.087Z,24.90
2018-07-21T08:25:18.436Z,24.80
2018-07-21T08:27:46.738Z,24.70
2018-07-21T08:30:15.044Z,24.80
2018-07-21T08:32:43.390Z,24.80
2018-07-21T08:35:11.724Z,24.80
2018-07-21T08:37:40.044Z,24.70
2018-07-21T08:40:09.184Z,24.70
2018-07-21T08:42:37.563Z,24.70
2018-07-21T08:45:06.382Z,24.70
2018-07-21T08:47:34.714Z,24.60
2018-07-21T08:50:03.063Z,24.60
2018-07-21T08:52:31.396Z,24.40
2018-07-21T08:54:59.711Z,24.30
2018-07-21T08:57:28.047Z,24.50
2018-07-21T08:59:56.447Z,24.60
2018-07-21T09:02:24.783Z,24.70
2018-07-21T09:04:53.089Z,24.80
2018-07-21T09:07:21.427Z,25.00
2018-07-21T09:09:49.747Z,25.10
2018-07-21T09:12:18.094Z,24.90
2018-07-21T09:14:46.401Z,25.00
2018-07-21T09:17:19.051Z,25.00
2018-07-21T09:19:48.144Z,25.00
2018-07-21T09:22:16.549Z,24.90
2018-07-21T09:24:44.853Z,24.50
2018-07-21T09:27:13.279Z,24.90
2018-07-21T09:29:41.589Z,25.40
2018-07-21T09:32:10.087Z,25.50
2018-07-21T09:34:38.408Z,25.50
2018-07-21T09:37:06.761Z,25.30
2018-07-21T09:39:35.099Z,25.40
2018-07-21T09:42:03.456Z,25.60
2018-07-21T09:44:32.227Z,25.80
2018-07-21T09:47:00.554Z,26.00
2018-07-21T09:49:28.848Z,26.30
2018-07-21T09:51:57.192Z,26.50
2018-07-21T09:54:25.523Z,26.80
2018-07-21T09:56:53.861Z,26.40
2018-07-21T09:59:22.301Z,26.40
2018-07-21T10:01:50.635Z,26.50
2018-07-21T10:04:18.955Z,27.00
2018-07-21T10:06:48.089Z,27.10
2018-07-21T10:09:16.402Z,27.30
2018-07-21T10:11:44.733Z,27.30
2018-07-21T10:14:13.051Z,27.50
2018-07-21T10:16:41.401Z,27.70
2018-07-21T10:19:09.711Z,27.80
2018-07-21T10:21:38.030Z,28.00
2018-07-21T10:24:11.976Z,28.10
2018-07-21T10:26:45.756Z,28.20
2018-07-21T10:29:14.743Z,28.10
2018-07-21T10:31:44.083Z,28.20
2018-07-21T10:34:12.681Z,28.30
2018-07-21T10:36:41.496Z,28.10
2018-07-21T10:39:12.559Z,28.30
2018-07-21T10:41:40.941Z,28.50
2018-07-21T10:44:09.265Z,28.60
2018-07-21T10:46:37.575Z,28.60
2018-07-21T10:49:07.019Z,28.40
2018-07-21T10:51:35.429Z,28.30
2018-07-21T10:54:04.147Z,28.40
2018-07-21T10:56:32.492Z,28.40
2018-07-21T10:59:01.043Z,28.60
2018-07-21T11:01:29.496Z,28.50
2018-07-21T11:03:57.824Z,28.40
2018-07-21T11:06:26.144Z,28.60
2018-07-21T11:08:54.457Z,28.70
2018-07-21T11:11:24.066Z,28.90
2018-07-21T11:13:52.496Z,29.00
2018-07-21T11:16:20.812Z,28.80
2018-07-21T11:18:49.167Z,28.70
2018-07-21T11:21:17.493Z,29.00
2018-07-21T11:23:45.828Z,29.00
2018-07-21T11:26:14.300Z,28.80
2018-07-21T11:28:42.631Z,28.60
2018-07-21T11:31:10.949Z,28.30
2018-07-21T11:33:39.283Z,28.50
2018-07-21T11:36:07.782Z,28.80
2018-07-21T11:38:35.976Z,28.80
2018-07-21T11:41:04.317Z,29.00
2018-07-21T11:43:32.657Z,29.20
2018-07-21T11:46:01.091Z,29.30
2018-07-21T11:48:29.441Z,29.50
2018-07-21T11:50:57.851Z,29.40
2018-07-21T11:53:26.180Z,29.20
2018-07-21T11:55:54.495Z,29.50
2018-07-21T12:00:50.900Z,29.50
2018-07-21T12:03:19.242Z,29.60
2018-07-21T12:05:47.573Z,29.50
2018-07-21T12:08:15.916Z,29.10
2018-07-21T12:10:44.236Z,29.10
2018-07-21T12:13:12.603Z,29.10
2018-07-21T12:15:40.941Z,29.20
2018-07-21T12:18:09.277Z,29.30
2018-07-21T12:20:37.585Z,29.30
2018-07-21T12:23:05.937Z,29.20
2018-07-21T12:25:34.249Z,29.30
2018-07-21T12:28:02.569Z,29.40
2018-07-21T12:30:30.886Z,29.50
2018-07-21T12:32:59.339Z,29.60
2018-07-21T12:35:27.744Z,29.50
2018-07-21T12:37:56.199Z,29.50
2018-07-21T12:40:24.536Z,29.40
2018-07-21T12:42:52.889Z,29.10
2018-07-21T12:45:21.206Z,29.30
2018-07-21T12:47:49.524Z,29.20
2018-07-21T12:50:17.925Z,29.20
2018-07-21T12:52:46.257Z,29.10
2018-07-21T12:55:14.620Z,29.20
2018-07-21T12:57:42.931Z,29.30
2018-07-21T13:00:11.292Z,29.20
2018-07-21T13:02:39.619Z,29.40
2018-07-21T13:05:07.961Z,29.40
2018-07-21T13:07:36.349Z,29.60
2018-07-21T13:10:04.764Z,29.70
2018-07-21T13:12:33.068Z,29.60
2018-07-21T13:15:01.405Z,29.60
2018-07-21T13:17:29.705Z,29.70
2018-07-21T13:19:58.023Z,29.60
2018-07-21T13:22:26.331Z,29.50
2018-07-21T13:24:54.664Z,29.60
2018-07-21T13:27:22.969Z,29.80
2018-07-21T13:29:51.427Z,29.90
2018-07-21T13:32:19.724Z,29.80
2018-07-21T13:34:48.056Z,29.90
2018-07-21T13:37:16.448Z,29.90
2018-07-21T13:42:12.861Z,29.90
2018-07-21T13:44:41.285Z,29.60
2018-07-21T13:47:09.607Z,29.50
2018-07-21T13:49:37.928Z,29.50
2018-07-21T13:52:06.233Z,29.40
2018-07-21T13:54:34.619Z,29.40
2018-07-21T13:57:02.944Z,29.40
2018-07-21T13:59:31.308Z,29.30
2018-07-21T14:01:59.627Z,29.20
2018-07-21T14:04:27.949Z,29.30
2018-07-21T14:06:56.264Z,29.30
2018-07-21T14:09:24.581Z,29.30
2018-07-21T14:11:52.895Z,29.10
2018-07-21T14:14:21.231Z,29.00
2018-07-21T14:16:49.589Z,28.80
2018-07-21T14:19:17.948Z,28.70
2018-07-21T14:21:46.287Z,28.70
2018-07-21T14:24:14.936Z,28.70
2018-07-21T14:26:43.261Z,28.90
2018-07-21T14:29:11.619Z,29.10
2018-07-21T14:31:39.957Z,29.10
2018-07-21T14:34:08.284Z,29.00
2018-07-21T14:36:36.647Z,28.90
2018-07-21T14:39:07.651Z,28.70
2018-07-21T14:41:36.982Z,28.20
2018-07-21T14:44:05.300Z,27.70
2018-07-21T14:46:33.615Z,27.20
2018-07-21T14:49:02.107Z,27.10
2018-07-21T14:51:30.417Z,26.80
2018-07-21T14:53:58.725Z,26.50
2018-07-21T14:56:27.150Z,26.20
2018-07-21T14:58:55.535Z,26.00
2018-07-21T15:01:24.029Z,25.90
2018-07-21T15:03:52.319Z,25.90
2018-07-21T15:06:20.775Z,25.80
2018-07-21T15:08:49.108Z,25.80
2018-07-21T15:11:17.421Z,25.60
2018-07-21T15:13:45.723Z,25.60
2018-07-21T15:16:14.051Z,25.60
2018-07-21T15:18:42.365Z,25.50
2018-07-21T15:21:10.703Z,25.40
2018-07-21T15:23:39.050Z,25.20
2018-07-21T15:26:07.387Z,25.00
2018-07-21T15:28:35.731Z,25.00
2018-07-21T15:31:04.081Z,24.90
2018-07-21T15:33:32.443Z,24.40
2018-07-21T15:36:00.780Z,24.00
2018-07-21T15:38:29.089Z,23.70
2018-07-21T15:40:57.433Z,23.40
2018-07-21T15:43:25.748Z,23.20
2018-07-21T15:45:54.105Z,22.90
2018-07-21T15:48:22.412Z,22.80
2018-07-21T15:50:50.751Z,22.60
2018-07-21T15:53:19.074Z,22.40
2018-07-21T15:55:47.405Z,22.40
2018-07-21T15:58:15.716Z,22.30
2018-07-21T16:00:44.108Z,22.40
2018-07-21T16:03:12.571Z,22.40
2018-07-21T16:05:40.931Z,22.40
2018-07-21T16:08:09.247Z,22.50
2018-07-21T16:10:37.592Z,22.50
2018-07-21T16:13:06.455Z,22.40
2018-07-21T16:15:34.822Z,22.50
2018-07-21T16:20:31.988Z,22.50
2018-07-21T16:23:00.341Z,22.50
2018-07-21T16:25:28.665Z,22.40
2018-07-21T16:27:57.270Z,22.50
2018-07-21T16:30:25.831Z,22.40
2018-07-21T16:32:54.130Z,22.50
2018-07-21T16:35:22.475Z,22.60
2018-07-21T16:37:50.812Z,22.60
2018-07-21T16:40:19.190Z,22.60
2018-07-21T16:42:47.468Z,22.60
2018-07-21T16:47:43.916Z,22.50
2018-07-21T16:50:12.241Z,22.40
2018-07-21T16:52:40.583Z,22.50
2018-07-21T16:55:09.010Z,22.50
2018-07-21T16:57:37.337Z,22.70
2018-07-21T17:00:05.706Z,22.80
2018-07-21T17:02:34.057Z,22.80
2018-07-21T17:05:02.375Z,22.90
2018-07-21T17:07:30.768Z,22.90
2018-07-21T17:09:59.091Z,22.90
2018-07-21T17:12:27.417Z,23.00
2018-07-21T17:14:55.735Z,22.90
2018-07-21T17:17:24.079Z,23.00
2018-07-21T17:19:52.399Z,23.10
2018-07-21T17:22:20.735Z,23.10
2018-07-21T17:24:49.059Z,23.20
2018-07-21T17:27:17.416Z,23.40
2018-07-21T17:29:45.790Z,23.40
2018-07-21T17:32:14.073Z,23.50
2018-07-21T17:34:42.373Z,23.60
2018-07-21T17:37:10.881Z,23.60
2018-07-21T17:39:39.223Z,23.60
2018-07-21T17:42:07.537Z,23.70
2018-07-21T17:44:35.903Z,23.70
2018-07-21T17:47:04.251Z,23.80
2018-07-21T17:49:32.568Z,23.70
2018-07-21T17:52:00.961Z,23.80
2018-07-21T17:54:29.311Z,23.80
2018-07-21T17:56:57.707Z,23.90
2018-07-21T17:59:26.093Z,23.90
2018-07-21T18:01:54.479Z,24.00
2018-07-21T18:04:22.820Z,24.00
2018-07-21T18:06:51.155Z,24.00
2018-07-21T18:09:19.464Z,23.90
2018-07-21T18:11:47.939Z,23.90
2018-07-21T18:14:16.278Z,23.90
2018-07-21T18:16:44.607Z,23.80
2018-07-21T18:19:12.937Z,23.90
2018-07-21T18:21:41.256Z,23.90
2018-07-21T18:24:09.568Z,23.70
2018-07-21T18:26:37.907Z,23.70
2018-07-21T18:29:06.314Z,23.60
2018-07-21T18:31:34.697Z,23.50
2018-07-21T18:34:03.016Z,23.40
2018-07-21T18:36:31.359Z,23.30
2018-07-21T18:38:59.685Z,23.20
2018-07-21T18:41:28.031Z,23.10
2018-07-21T18:43:56.393Z,23.30
2018-07-21T18:46:24.691Z,23.20
2018-07-21T18:48:53.023Z,23.00
2018-07-21T18:51:21.324Z,22.90
2018-07-21T18:53:49.651Z,23.00
2018-07-21T18:56:17.986Z,22.90
2018-07-21T18:58:46.343Z,22.80
2018-07-21T19:01:14.655Z,22.70
2018-07-21T19:03:42.998Z,22.70
2018-07-21T19:06:11.341Z,22.70
2018-07-21T19:08:44.999Z,22.70
2018-07-21T19:11:13.335Z,22.60
2018-07-21T19:13:41.657Z,22.60
2018-07-21T19:16:15.310Z,22.50
2018-07-21T19:18:43.643Z,22.50
2018-07-21T19:21:17.094Z,22.30
2018-07-21T19:23:46.097Z,22.10
2018-07-21T19:26:19.813Z,22.00
2018-07-21T19:28:48.172Z,22.10
2018-07-21T19:31:16.468Z,22.00
2018-07-21T19:33:44.832Z,22.10
2018-07-21T19:36:13.155Z,22.00
2018-07-21T19:38:41.473Z,22.00
2018-07-21T19:41:15.169Z,22.00
2018-07-21T19:43:43.499Z,22.10
2018-07-21T19:46:12.074Z,22.10
2018-07-21T19:48:40.603Z,22.10
2018-07-21T19:51:09.194Z,21.90
2018-07-21T19:53:37.556Z,21.90
2018-07-21T19:56:05.894Z,21.80
2018-07-21T19:58:34.517Z,21.70
2018-07-21T20:01:02.906Z,21.60
2018-07-21T20:03:31.236Z,21.60
2018-07-21T20:05:59.725Z,21.50
2018-07-21T20:08:28.111Z,21.50
2018-07-21T20:10:56.388Z,21.50
2018-07-21T20:13:24.845Z,21.50
2018-07-21T20:15:53.180Z,21.40
2018-07-21T20:18:21.528Z,21.20
2018-07-21T20:20:49.894Z,21.10
2018-07-21T20:23:18.213Z,21.10
2018-07-21T20:25:46.548Z,21.00
2018-07-21T20:28:14.941Z,20.90
2018-07-21T20:30:43.244Z,20.90
2018-07-21T20:33:11.579Z,20.80
2018-07-21T20:35:39.899Z,20.80
2018-07-21T20:38:08.229Z,20.70
2018-07-21T20:40:36.852Z,20.70
2018-07-21T20:43:05.192Z,20.40
2018-07-21T20:45:33.500Z,20.50
2018-07-21T20:48:01.837Z,20.50
2018-07-21T20:50:30.145Z,20.50
2018-07-21T20:52:58.462Z,20.40
2018-07-21T20:55:26.766Z,20.40
2018-07-21T20:57:55.128Z,20.50
2018-07-21T21:00:23.527Z,20.50
2018-07-21T21:02:51.793Z,20.50
2018-07-21T21:05:20.109Z,20.40
2018-07-21T21:07:48.424Z,20.30
2018-07-21T21:10:16.752Z,20.30
2018-07-21T21:12:45.081Z,20.20
2018-07-21T21:15:13.414Z,20.20
2018-07-21T21:17:41.740Z,20.00
2018-07-21T21:20:10.057Z,19.90
2018-07-21T21:22:38.398Z,20.00
2018-07-21T21:25:06.699Z,20.00
2018-07-21T21:27:35.005Z,20.00
2018-07-21T21:30:03.356Z,20.00
2018-07-21T21:32:31.673Z,19.80
2018-07-21T21:35:00.032Z,19.80
2018-07-21T21:37:28.337Z,19.80
2018-07-21T21:39:56.654Z,19.90
2018-07-21T21:42:24.981Z,19.80
2018-07-21T21:44:53.297Z,19.90
2018-07-21T21:47:21.607Z,19.90
2018-07-21T21:49:49.928Z,19.90
2018-07-21T21:52:18.248Z,19.80
2018-07-21T21:54:46.560Z,19.60
2018-07-21T21:57:14.856Z,19.50
2018-07-21T21:59:43.197Z,19.60
2018-07-21T22:02:11.577Z,19.60
2018-07-21T22:04:39.939Z,19.70
2018-07-21T22:07:08.229Z,19.70
2018-07-21T22:09:36.544Z,19.70
2018-07-21T22:12:04.873Z,19.70
2018-07-21T22:14:33.287Z,19.80
2018-07-21T22:17:01.673Z,19.80
2018-07-21T22:19:30.044Z,19.90
2018-07-21T22:21:58.379Z,19.90
2018-07-21T22:24:26.732Z,19.80
2018-07-21T22:26:55.048Z,19.80
2018-07-21T22:29:23.488Z,19.70
2018-07-21T22:31:51.810Z,19.70
2018-07-21T22:34:20.141Z,19.60
2018-07-21T22:36:48.479Z,19.50
2018-07-21T22:39:16.798Z,19.20
2018-07-21T22:41:45.095Z,19.20
2018-07-21T22:44:13.508Z,19.20
2018-07-21T22:46:41.752Z,19.30
2018-07-21T22:49:10.084Z,19.30
2018-07-21T22:51:38.455Z,19.40
2018-07-21T22:54:06.851Z,19.40
2018-07-21T22:56:35.148Z,19.40
2018-07-21T22:59:03.497Z,19.40
2018-07-21T23:01:31.801Z,19.50
2018-07-21T23:04:00.167Z,19.40
2018-07-21T23:06:28.511Z,19.30
2018-07-21T23:08:56.964Z,19.30
2018-07-21T23:11:25.283Z,19.40
2018-07-21T23:13:53.585Z,19.50
2018-07-21T23:16:21.947Z,19.50
2018-07-21T23:18:50.252Z,19.40
2018-07-21T23:21:18.573Z,19.50
2018-07-21T23:23:46.895Z,19.40
2018-07-21T23:26:15.248Z,19.30
2018-07-21T23:28:43.549Z,19.30
2018-07-21T23:31:11.875Z,19.30
2018-07-21T23:33:40.200Z,19.30
2018-07-21T23:36:08.533Z,19.40
2018-07-21T23:38:36.859Z,19.30
2018-07-21T23:41:05.177Z,19.30
2018-07-21T23:43:33.476Z,19.20
2018-07-21T23:46:01.832Z,18.90
2018-07-21T23:48:30.139Z,18.80
2018-07-21T23:50:58.481Z,18.90
2018-07-21T23:53:26.781Z,18.90
2018-07-21T23:55:55.119Z,18.90
2018-07-21T23:58:23.445Z,19.00
